Time;durP1;ratioP1;P1;durP2;ratioP2;P2;SDS_P1;SDS_P2;PMS_P1;PMS_P2;Temp;Humidity;BMP_temperature;BMP_pressure;BME280_temperature;BME280_humidity;BME280_pressure;Samples;Min_cycle;Max_cycle;Signal;HPM_P1;HPM_P2
2021/12/29 00:00:10;;;;;;;;;;;16.50;99.90;;;;;;5074638;28;19915;-72
2021/12/29 00:02:37;;;;;;;;;;;16.70;99.90;;;;;;5074715;28;19909;-72
2021/12/29 00:05:04;;;;;;;;;;;16.90;99.90;;;;;;5074716;28;19913;-73
2021/12/29 00:07:31;;;;;;;;;;;17.10;99.90;;;;;;5074618;28;20285;-73
2021/12/29 00:10:00;;;;;;;;;;;17.20;99.90;;;;;;5074246;28;19920;-72
2021/12/29 00:12:27;;;;;;;;;;;17.10;99.90;;;;;;5074554;28;19916;-73
2021/12/29 00:14:55;;;;;;;;;;;17.10;99.90;;;;;;5074562;28;20309;-72
2021/12/29 00:17:22;;;;;;;;;;;17.10;99.90;;;;;;5074564;28;19955;-73
2021/12/29 00:19:48;;;;;;;;;;;17.00;99.90;;;;;;5074210;28;19908;-73
2021/12/29 00:22:15;;;;;;;;;;;17.10;99.90;;;;;;5074209;28;19940;-72
2021/12/29 00:24:42;;;;;;;;;;;17.20;99.90;;;;;;5075674;28;19912;-71
2021/12/29 00:27:10;;;;;;;;;;;17.40;99.90;;;;;;5074317;28;19909;-72
2021/12/29 00:29:36;;;;;;;;;;;17.50;99.90;;;;;;5074277;28;19908;-72
2021/12/29 00:32:03;;;;;;;;;;;17.60;99.90;;;;;;5073892;28;20351;-72
2021/12/29 00:34:30;;;;;;;;;;;17.80;99.90;;;;;;5074252;28;19954;-72
2021/12/29 00:36:57;;;;;;;;;;;17.80;99.90;;;;;;5074206;28;19915;-72
2021/12/29 00:39:23;;;;;;;;;;;17.80;99.90;;;;;;5074237;28;20355;-71
2021/12/29 00:41:50;;;;;;;;;;;18.00;99.90;;;;;;5073941;28;20429;-71
2021/12/29 00:44:17;;;;;;;;;;;18.10;99.90;;;;;;5073985;28;20412;-71
2021/12/29 00:46:43;;;;;;;;;;;18.30;99.90;;;;;;5073787;28;19913;-71
2021/12/29 00:49:10;;;;;;;;;;;18.30;99.90;;;;;;5073787;28;19931;-72
2021/12/29 00:51:37;;;;;;;;;;;18.50;99.90;;;;;;5073581;28;20007;-72
2021/12/29 00:54:04;;;;;;;;;;;18.50;99.90;;;;;;5073419;28;19908;-72
2021/12/29 00:56:31;;;;;;;;;;;18.80;99.90;;;;;;5073915;28;19974;-72
2021/12/29 00:58:58;;;;;;;;;;;18.60;99.90;;;;;;5073693;28;19961;-72
2021/12/29 01:01:24;;;;;;;;;;;18.70;99.90;;;;;;5073388;28;19913;-72
2021/12/29 01:03:51;;;;;;;;;;;18.70;99.90;;;;;;5073350;28;19923;-72
2021/12/29 01:06:18;;;;;;;;;;;18.70;99.90;;;;;;5073305;28;20299;-72
2021/12/29 01:08:44;;;;;;;;;;;18.60;99.90;;;;;;5073324;28;20035;-72
2021/12/29 01:11:11;;;;;;;;;;;18.70;99.90;;;;;;5073330;28;20017;-72
2021/12/29 01:13:47;;;;;;;;;;;18.60;99.90;;;;;;5073326;28;19919;-73
2021/12/29 01:19:00;;;;;;;;;;;18.60;99.90;;;;;;5073408;28;19959;-72
2021/12/29 01:21:27;;;;;;;;;;;18.70;99.90;;;;;;5073047;28;19944;-72
2021/12/29 01:23:53;;;;;;;;;;;18.60;99.90;;;;;;5072845;28;19993;-72
2021/12/29 01:26:20;;;;;;;;;;;18.80;99.90;;;;;;5073145;28;19909;-72
2021/12/29 01:28:47;;;;;;;;;;;19.10;99.90;;;;;;5073125;28;19916;-73
2021/12/29 01:31:13;;;;;;;;;;;19.20;99.90;;;;;;5072973;28;19916;-72
2021/12/29 01:33:40;;;;;;;;;;;19.20;99.90;;;;;;5073030;28;19913;-72
2021/12/29 01:36:07;;;;;;;;;;;19.20;99.90;;;;;;5072825;28;19913;-72
2021/12/29 01:38:33;;;;;;;;;;;19.30;99.90;;;;;;5072753;28;20419;-72
2021/12/29 01:41:00;;;;;;;;;;;19.40;99.90;;;;;;5072700;28;20271;-72
2021/12/29 01:43:27;;;;;;;;;;;19.50;99.90;;;;;;5072761;28;20359;-72
2021/12/29 01:45:53;;;;;;;;;;;19.60;99.90;;;;;;5072613;28;19908;-72
2021/12/29 01:48:20;;;;;;;;;;;19.80;99.90;;;;;;5072938;28;20313;-72
2021/12/29 01:50:51;;;;;;;;;;;20.10;99.90;;;;;;5072354;28;19974;-73
2021/12/29 01:53:31;;;;;;;;;;;20.20;99.90;;;;;;5072681;28;19919;-73
2021/12/29 01:55:58;;;;;;;;;;;20.30;99.90;;;;;;5072447;28;19909;-73
2021/12/29 01:58:25;;;;;;;;;;;20.40;99.90;;;;;;5072800;28;20304;-73
2021/12/29 02:00:52;;;;;;;;;;;20.60;99.90;;;;;;5072406;28;19930;-72
2021/12/29 02:03:19;;;;;;;;;;;20.70;99.90;;;;;;5072304;28;19915;-72
2021/12/29 02:05:47;;;;;;;;;;;20.80;99.90;;;;;;5072589;28;19917;-72
2021/12/29 02:08:21;;;;;;;;;;;20.70;99.90;;;;;;5072431;28;19909;-73
2021/12/29 02:10:48;;;;;;;;;;;20.70;99.90;;;;;;5072342;28;20223;-72
2021/12/29 02:13:15;;;;;;;;;;;20.50;99.90;;;;;;5072706;28;19909;-72
2021/12/29 02:15:42;;;;;;;;;;;20.30;99.90;;;;;;5072478;28;20427;-72
2021/12/29 02:18:14;;;;;;;;;;;20.40;99.90;;;;;;5071694;28;19912;-72
2021/12/29 02:20:42;;;;;;;;;;;20.40;99.90;;;;;;5072628;28;20318;-72
2021/12/29 02:23:14;;;;;;;;;;;20.40;99.90;;;;;;5072267;28;19912;-72
2021/12/29 02:25:48;;;;;;;;;;;20.40;99.90;;;;;;5072218;28;19909;-72
2021/12/29 02:28:16;;;;;;;;;;;20.40;99.90;;;;;;5072407;28;20279;-72
2021/12/29 02:30:44;;;;;;;;;;;20.30;99.90;;;;;;5072145;28;19925;-72
2021/12/29 02:33:13;;;;;;;;;;;20.30;99.90;;;;;;5072207;28;20811;-73
2021/12/29 02:35:41;;;;;;;;;;;20.20;99.90;;;;;;5072218;28;19908;-72
2021/12/29 02:38:16;;;;;;;;;;;20.10;99.90;;;;;;5071932;28;20283;-72
2021/12/29 02:40:43;;;;;;;;;;;20.00;99.90;;;;;;5072171;28;19923;-72
2021/12/29 02:43:12;;;;;;;;;;;19.90;99.90;;;;;;5071892;28;19908;-72
2021/12/29 02:45:39;;;;;;;;;;;19.80;99.90;;;;;;5071988;28;20282;-72
2021/12/29 02:48:05;;;;;;;;;;;19.60;99.90;;;;;;5072031;28;20769;-72
2021/12/29 02:50:34;;;;;;;;;;;19.60;99.90;;;;;;5072060;28;19916;-72
2021/12/29 02:53:01;;;;;;;;;;;19.40;99.90;;;;;;5072061;28;20355;-72
2021/12/29 02:55:27;;;;;;;;;;;19.20;99.90;;;;;;5072098;28;20018;-72
2021/12/29 02:57:54;;;;;;;;;;;19.10;99.90;;;;;;5072009;28;19954;-72
2021/12/29 03:00:21;;;;;;;;;;;19.00;99.90;;;;;;5072117;28;19908;-72
2021/12/29 03:02:47;;;;;;;;;;;19.00;99.90;;;;;;5071878;28;20363;-72
2021/12/29 03:05:14;;;;;;;;;;;19.10;99.90;;;;;;5071852;28;19909;-72
2021/12/29 03:07:41;;;;;;;;;;;19.10;99.90;;;;;;5071960;28;19915;-72
2021/12/29 03:10:07;;;;;;;;;;;19.00;99.90;;;;;;5071524;28;19920;-72
2021/12/29 03:12:34;;;;;;;;;;;18.80;99.90;;;;;;5072047;28;19954;-72
2021/12/29 03:15:01;;;;;;;;;;;18.60;99.90;;;;;;5071965;28;19931;-73
2021/12/29 03:17:27;;;;;;;;;;;18.50;99.90;;;;;;5071929;28;19908;-73
2021/12/29 03:19:54;;;;;;;;;;;18.50;99.90;;;;;;5071529;28;19908;-73
2021/12/29 03:22:21;;;;;;;;;;;18.30;99.90;;;;;;5071511;28;19915;-74
2021/12/29 03:24:47;;;;;;;;;;;18.30;99.90;;;;;;5071614;28;19908;-72
2021/12/29 03:27:14;;;;;;;;;;;18.30;99.90;;;;;;5071745;28;19908;-74
2021/12/29 03:29:41;;;;;;;;;;;18.20;99.90;;;;;;5072417;28;19908;-74
2021/12/29 03:32:09;;;;;;;;;;;18.20;99.90;;;;;;5075072;28;20007;-73
2021/12/29 03:34:36;;;;;;;;;;;18.20;99.90;;;;;;5075184;28;19954;-73
2021/12/29 03:37:03;;;;;;;;;;;18.20;99.90;;;;;;5074991;28;19912;-73
2021/12/29 03:39:37;;;;;;;;;;;18.20;99.90;;;;;;5075373;28;19916;-73
2021/12/29 03:42:04;;;;;;;;;;;18.20;99.90;;;;;;5074827;28;20508;-72
2021/12/29 03:44:31;;;;;;;;;;;18.30;99.90;;;;;;5075270;28;19909;-73
2021/12/29 03:46:57;;;;;;;;;;;18.30;99.90;;;;;;5075082;28;19909;-73
2021/12/29 03:49:24;;;;;;;;;;;18.40;99.90;;;;;;5075047;28;19969;-73
2021/12/29 03:51:50;;;;;;;;;;;18.50;99.90;;;;;;5074541;28;19916;-72
2021/12/29 03:54:17;;;;;;;;;;;18.50;99.90;;;;;;5075041;28;19908;-72
2021/12/29 03:56:44;;;;;;;;;;;18.60;99.90;;;;;;5074848;28;19908;-73
2021/12/29 03:59:10;;;;;;;;;;;18.70;99.90;;;;;;5074842;28;19908;-73
2021/12/29 04:01:37;;;;;;;;;;;18.80;99.90;;;;;;5074847;28;19919;-72
2021/12/29 04:04:04;;;;;;;;;;;18.90;99.90;;;;;;5074528;28;20046;-72
2021/12/29 04:06:30;;;;;;;;;;;19.00;99.90;;;;;;5074692;28;19944;-72
2021/12/29 04:08:57;;;;;;;;;;;19.00;99.90;;;;;;5074444;28;20359;-72
2021/12/29 04:11:24;;;;;;;;;;;18.90;99.90;;;;;;5074455;28;20359;-72
2021/12/29 04:13:50;;;;;;;;;;;18.90;99.90;;;;;;5074520;28;19908;-72
2021/12/29 04:16:18;;;;;;;;;;;18.90;99.90;;;;;;5074659;28;19915;-72
2021/12/29 04:19:06;;;;;;;;;;;18.90;99.90;;;;;;5074529;28;19909;-72
2021/12/29 04:21:36;;;;;;;;;;;18.90;99.90;;;;;;5074348;28;19913;-72
2021/12/29 04:24:03;;;;;;;;;;;19.00;99.90;;;;;;5074071;28;19912;-72
2021/12/29 04:26:33;;;;;;;;;;;18.90;99.90;;;;;;5074301;28;20359;-72
2021/12/29 04:28:59;;;;;;;;;;;18.90;99.90;;;;;;5074110;28;19920;-71
2021/12/29 04:31:26;;;;;;;;;;;18.80;99.90;;;;;;5073883;28;19940;-72
2021/12/29 04:33:53;;;;;;;;;;;18.80;99.90;;;;;;5073826;28;19909;-72
2021/12/29 04:36:24;;;;;;;;;;;18.80;99.90;;;;;;5074109;28;19915;-72
2021/12/29 04:38:51;;;;;;;;;;;18.80;99.90;;;;;;5073899;28;19962;-72
2021/12/29 04:41:18;;;;;;;;;;;18.90;99.90;;;;;;5073578;28;19909;-72
2021/12/29 04:43:44;;;;;;;;;;;19.00;99.90;;;;;;5074064;28;20023;-72
2021/12/29 04:46:16;;;;;;;;;;;19.00;99.90;;;;;;5074186;28;19915;-72
2021/12/29 04:48:49;;;;;;;;;;;19.10;99.90;;;;;;5073815;28;19913;-72
2021/12/29 04:51:24;;;;;;;;;;;19.20;99.90;;;;;;5073885;28;20278;-72
2021/12/29 04:53:51;;;;;;;;;;;19.20;99.90;;;;;;5073597;28;19959;-72
2021/12/29 04:56:17;;;;;;;;;;;19.40;99.90;;;;;;5073540;28;19909;-72
2021/12/29 04:58:44;;;;;;;;;;;19.40;99.90;;;;;;5073944;28;20383;-72
2021/12/29 05:01:11;;;;;;;;;;;19.20;99.90;;;;;;5073603;28;19923;-72
2021/12/29 05:03:38;;;;;;;;;;;19.20;99.90;;;;;;5073528;28;20255;-72
2021/12/29 05:08:32;;;;;;;;;;;19.20;99.90;;;;;;5073472;28;19912;-75
2021/12/29 05:11:08;;;;;;;;;;;19.20;99.90;;;;;;5073042;28;19920;-72
2021/12/29 05:13:36;;;;;;;;;;;19.20;99.90;;;;;;5073429;28;20367;-72
2021/12/29 05:16:02;;;;;;;;;;;19.40;99.90;;;;;;5073138;28;20442;-72
2021/12/29 05:18:34;;;;;;;;;;;19.50;99.90;;;;;;5073385;28;20370;-72
2021/12/29 05:21:02;;;;;;;;;;;19.50;99.90;;;;;;5073457;28;19927;-72
2021/12/29 05:23:29;;;;;;;;;;;19.60;99.90;;;;;;5073269;28;20003;-71
2021/12/29 05:25:57;;;;;;;;;;;19.70;99.90;;;;;;5105488;28;20321;-71
2021/12/29 05:28:24;;;;;;;;;;;19.60;99.90;;;;;;5073165;28;19915;-71
2021/12/29 05:30:52;;;;;;;;;;;19.60;99.90;;;;;;5073200;28;20264;-72
2021/12/29 05:33:19;;;;;;;;;;;19.60;99.90;;;;;;5073368;28;19915;-71
2021/12/29 05:35:45;;;;;;;;;;;19.50;99.90;;;;;;5072950;28;19968;-71
2021/12/29 05:38:12;;;;;;;;;;;19.50;99.90;;;;;;5072961;28;19961;-72
2021/12/29 05:40:39;;;;;;;;;;;19.50;99.90;;;;;;5072910;28;19908;-72
2021/12/29 05:43:05;;;;;;;;;;;19.70;99.90;;;;;;5072986;28;19908;-71
2021/12/29 05:45:32;;;;;;;;;;;19.70;99.90;;;;;;5072686;28;19961;-72
2021/12/29 05:47:59;;;;;;;;;;;19.90;99.90;;;;;;5072461;28;19909;-72
2021/12/29 05:50:27;;;;;;;;;;;20.20;99.90;;;;;;5072241;28;20367;-71
2021/12/29 05:52:54;;;;;;;;;;;20.20;99.90;;;;;;5069253;28;19912;-72
2021/12/29 05:55:21;;;;;;;;;;;20.30;99.90;;;;;;5070789;28;20379;-73
2021/12/29 05:57:48;;;;;;;;;;;20.20;99.90;;;;;;5070375;28;19990;-72
2021/12/29 06:00:17;;;;;;;;;;;20.10;99.90;;;;;;5070649;28;19909;-73
2021/12/29 06:02:43;;;;;;;;;;;20.20;99.90;;;;;;5070589;28;20399;-72
2021/12/29 06:05:10;;;;;;;;;;;20.30;99.90;;;;;;5070012;28;19970;-73
2021/12/29 06:07:38;;;;;;;;;;;20.40;99.90;;;;;;5070634;28;19909;-71
2021/12/29 06:10:05;;;;;;;;;;;20.40;99.90;;;;;;5070057;28;19936;-72
2021/12/29 06:12:36;;;;;;;;;;;20.50;99.90;;;;;;5069755;28;20295;-72
2021/12/29 06:15:03;;;;;;;;;;;20.60;99.90;;;;;;5070520;28;20022;-72
2021/12/29 06:17:30;;;;;;;;;;;20.60;99.90;;;;;;5070219;28;20381;-72
2021/12/29 06:19:56;;;;;;;;;;;20.70;99.90;;;;;;5070168;28;19927;-72
2021/12/29 06:22:23;;;;;;;;;;;20.60;99.90;;;;;;5070276;28;19923;-73
2021/12/29 06:24:53;;;;;;;;;;;20.60;99.90;;;;;;5070297;28;20049;-73
2021/12/29 06:27:21;;;;;;;;;;;20.60;99.90;;;;;;5070214;28;19919;-72
2021/12/29 06:29:47;;;;;;;;;;;20.70;99.90;;;;;;5070041;28;20351;-73
2021/12/29 06:32:14;;;;;;;;;;;20.70;99.90;;;;;;5069678;28;19966;-72
2021/12/29 06:34:41;;;;;;;;;;;20.70;99.90;;;;;;5070061;28;19912;-72
2021/12/29 06:37:09;;;;;;;;;;;20.70;99.90;;;;;;5070352;28;19935;-73
2021/12/29 06:39:36;;;;;;;;;;;20.60;99.90;;;;;;5070213;28;19913;-72
2021/12/29 06:42:03;;;;;;;;;;;20.60;99.90;;;;;;5070170;28;19916;-72
2021/12/29 06:44:30;;;;;;;;;;;20.60;99.90;;;;;;5070015;28;19912;-73
2021/12/29 06:46:57;;;;;;;;;;;20.50;99.90;;;;;;5070119;28;19912;-72
2021/12/29 06:49:23;;;;;;;;;;;20.50;99.90;;;;;;5069948;28;19916;-72
2021/12/29 06:51:50;;;;;;;;;;;20.50;99.90;;;;;;5069945;28;19916;-73
2021/12/29 06:54:17;;;;;;;;;;;20.50;99.90;;;;;;5070100;28;20291;-72
2021/12/29 06:56:43;;;;;;;;;;;20.50;99.90;;;;;;5069755;28;19915;-73
2021/12/29 06:59:10;;;;;;;;;;;20.50;99.90;;;;;;5069918;28;19912;-73
2021/12/29 07:01:37;;;;;;;;;;;20.60;99.90;;;;;;5069987;28;19919;-73
2021/12/29 07:04:03;;;;;;;;;;;20.60;99.90;;;;;;5070962;28;19916;-72
2021/12/29 07:06:30;;;;;;;;;;;20.60;99.90;;;;;;5073951;28;19916;-73
2021/12/29 07:08:57;;;;;;;;;;;20.60;99.90;;;;;;5073657;28;19947;-72
2021/12/29 07:11:23;;;;;;;;;;;20.60;99.90;;;;;;5073481;28;19920;-73
2021/12/29 07:13:51;;;;;;;;;;;20.60;99.90;;;;;;5073444;28;20259;-73
2021/12/29 07:16:18;;;;;;;;;;;20.50;99.90;;;;;;5073719;28;20545;-72
2021/12/29 07:18:48;;;;;;;;;;;20.50;99.90;;;;;;5073473;28;19909;-72
2021/12/29 07:21:15;;;;;;;;;;;20.50;99.90;;;;;;5073610;28;19908;-73
2021/12/29 07:23:42;;;;;;;;;;;20.50;99.90;;;;;;5073443;28;19913;-72
2021/12/29 07:26:09;;;;;;;;;;;20.40;99.90;;;;;;5073536;28;20394;-73
2021/12/29 07:28:35;;;;;;;;;;;20.40;99.90;;;;;;5073026;28;20329;-73
2021/12/29 07:31:02;;;;;;;;;;;20.40;99.90;;;;;;5072867;28;19916;-72
2021/12/29 07:33:29;;;;;;;;;;;20.40;99.90;;;;;;5073138;28;19908;-72
2021/12/29 07:35:55;;;;;;;;;;;20.40;99.90;;;;;;5072661;28;20003;-72
2021/12/29 07:38:22;;;;;;;;;;;20.40;99.90;;;;;;5073169;28;20410;-72
2021/12/29 07:40:48;;;;;;;;;;;20.30;99.90;;;;;;5073253;28;19959;-72
2021/12/29 07:43:15;;;;;;;;;;;20.40;99.90;;;;;;5073177;28;20419;-72
2021/12/29 07:45:42;;;;;;;;;;;20.40;99.90;;;;;;5072697;28;19943;-72
2021/12/29 07:48:09;;;;;;;;;;;20.40;99.90;;;;;;5072820;28;19912;-73
2021/12/29 07:50:37;;;;;;;;;;;20.30;99.90;;;;;;5072540;28;20297;-72
2021/12/29 07:53:05;;;;;;;;;;;20.30;99.90;;;;;;5073018;28;19920;-72
2021/12/29 07:55:31;;;;;;;;;;;20.30;99.90;;;;;;5072875;28;19920;-72
2021/12/29 07:57:58;;;;;;;;;;;20.30;99.90;;;;;;5072787;28;19913;-72
2021/12/29 08:00:25;;;;;;;;;;;20.20;99.90;;;;;;5072408;28;19912;-72
2021/12/29 08:02:52;;;;;;;;;;;20.20;99.90;;;;;;5072392;28;19913;-73
2021/12/29 08:05:19;;;;;;;;;;;20.20;99.90;;;;;;5073352;28;19909;-73
2021/12/29 08:07:46;;;;;;;;;;;20.20;99.90;;;;;;5074574;28;19974;-73
2021/12/29 08:10:13;;;;;;;;;;;20.20;99.90;;;;;;5074484;28;19931;-73
2021/12/29 08:12:40;;;;;;;;;;;20.20;99.90;;;;;;5074617;28;19921;-72
2021/12/29 08:15:07;;;;;;;;;;;20.10;99.90;;;;;;5073688;28;20385;-73
2021/12/29 08:17:34;;;;;;;;;;;20.10;99.90;;;;;;5074190;28;19909;-73
2021/12/29 08:20:01;;;;;;;;;;;20.00;99.90;;;;;;5074362;28;20359;-73
2021/12/29 08:22:28;;;;;;;;;;;20.00;99.90;;;;;;5074337;28;19909;-73
2021/12/29 08:24:55;;;;;;;;;;;20.00;99.90;;;;;;5074486;28;19912;-73
2021/12/29 08:27:21;;;;;;;;;;;20.00;99.90;;;;;;5074655;28;19908;-73
2021/12/29 08:29:48;;;;;;;;;;;19.90;99.90;;;;;;5073811;28;19908;-72
2021/12/29 08:32:15;;;;;;;;;;;19.90;99.90;;;;;;5074383;28;19917;-72
2021/12/29 08:34:42;;;;;;;;;;;19.90;99.90;;;;;;5074051;28;19978;-72
2021/12/29 08:37:08;;;;;;;;;;;19.90;99.90;;;;;;5074016;28;19931;-72
2021/12/29 08:39:35;;;;;;;;;;;19.90;99.90;;;;;;5074278;28;20419;-72
2021/12/29 08:42:02;;;;;;;;;;;19.80;99.90;;;;;;5073826;28;19909;-73
2021/12/29 08:44:28;;;;;;;;;;;19.80;99.90;;;;;;5073923;28;19908;-73
2021/12/29 08:46:55;;;;;;;;;;;19.80;99.90;;;;;;5074204;28;19987;-73
2021/12/29 08:49:22;;;;;;;;;;;19.80;99.90;;;;;;5074099;28;19908;-73
2021/12/29 08:51:48;;;;;;;;;;;19.70;99.90;;;;;;5073647;28;19917;-73
2021/12/29 08:54:15;;;;;;;;;;;19.60;99.90;;;;;;5073848;28;19987;-72
2021/12/29 08:56:42;;;;;;;;;;;19.60;99.90;;;;;;5073912;28;19908;-72
2021/12/29 08:59:10;;;;;;;;;;;19.60;99.90;;;;;;5073786;28;19943;-72
2021/12/29 09:01:36;;;;;;;;;;;19.50;99.90;;;;;;5106275;28;19958;-72
2021/12/29 09:04:03;;;;;;;;;;;19.50;99.90;;;;;;5073507;28;19913;-72
2021/12/29 09:06:30;;;;;;;;;;;19.50;99.90;;;;;;5073685;28;20319;-72
2021/12/29 09:08:56;;;;;;;;;;;19.40;99.90;;;;;;5073703;28;19909;-72
2021/12/29 09:11:23;;;;;;;;;;;19.30;99.90;;;;;;5073518;28;20036;-72
2021/12/29 09:13:50;;;;;;;;;;;19.30;99.90;;;;;;5073426;28;19915;-72
2021/12/29 09:16:16;;;;;;;;;;;19.20;99.90;;;;;;5073600;28;19915;-72
2021/12/29 09:18:43;;;;;;;;;;;19.20;99.90;;;;;;5073362;28;20416;-72
2021/12/29 09:21:14;;;;;;;;;;;19.10;99.90;;;;;;5073449;28;19908;-72
2021/12/29 09:23:42;;;;;;;;;;;19.10;99.90;;;;;;5073464;28;20417;-72
2021/12/29 09:26:11;;;;;;;;;;;19.00;99.90;;;;;;5073100;28;19931;-72
2021/12/29 09:28:38;;;;;;;;;;;19.00;99.90;;;;;;5072307;28;19920;-72
2021/12/29 09:31:04;;;;;;;;;;;19.00;99.90;;;;;;5072933;28;19961;-72
2021/12/29 09:33:31;;;;;;;;;;;18.90;99.90;;;;;;5073129;28;20381;-72
2021/12/29 09:36:01;;;;;;;;;;;18.90;99.90;;;;;;5072789;28;20274;-72
2021/12/29 09:38:28;;;;;;;;;;;18.80;99.90;;;;;;5073057;28;19943;-72
2021/12/29 09:40:55;;;;;;;;;;;18.80;99.90;;;;;;5072914;28;19918;-72
2021/12/29 09:43:22;;;;;;;;;;;18.80;99.90;;;;;;5072948;28;19952;-72
2021/12/29 09:45:50;;;;;;;;;;;18.70;99.90;;;;;;5072550;28;19950;-72
2021/12/29 09:48:17;;;;;;;;;;;18.70;99.90;;;;;;5072710;28;19946;-72
2021/12/29 09:50:44;;;;;;;;;;;18.70;99.90;;;;;;5072773;28;19921;-72
2021/12/29 09:53:10;;;;;;;;;;;18.60;99.90;;;;;;5072892;28;20243;-72
2021/12/29 09:55:38;;;;;;;;;;;18.60;99.90;;;;;;5072858;28;19913;-72
2021/12/29 09:58:05;;;;;;;;;;;18.60;99.90;;;;;;5072517;28;19909;-71
2021/12/29 10:00:35;;;;;;;;;;;18.60;99.90;;;;;;5072737;28;19952;-72
2021/12/29 10:03:06;;;;;;;;;;;18.60;99.90;;;;;;5072570;28;20352;-72
2021/12/29 10:05:33;;;;;;;;;;;18.60;99.90;;;;;;5072656;28;20279;-73
2021/12/29 10:08:10;;;;;;;;;;;18.60;99.90;;;;;;5072396;28;19933;-72
2021/12/29 10:10:39;;;;;;;;;;;18.60;99.90;;;;;;5072402;28;19920;-73
2021/12/29 10:13:06;;;;;;;;;;;18.60;99.90;;;;;;5072404;28;20338;-72
2021/12/29 10:15:34;;;;;;;;;;;18.60;99.90;;;;;;5072611;28;19917;-71
2021/12/29 10:18:06;;;;;;;;;;;18.60;99.90;;;;;;5072081;28;19914;-72
2021/12/29 10:20:34;;;;;;;;;;;18.50;99.90;;;;;;5072523;28;19917;-72
2021/12/29 10:23:01;;;;;;;;;;;18.50;99.90;;;;;;5072603;28;19995;-72
2021/12/29 10:25:31;;;;;;;;;;;18.40;99.90;;;;;;5072357;28;20330;-72
2021/12/29 10:27:58;;;;;;;;;;;18.40;99.90;;;;;;5072443;28;20003;-72
2021/12/29 10:30:29;;;;;;;;;;;18.50;99.90;;;;;;5072288;28;19913;-72
2021/12/29 10:32:57;;;;;;;;;;;18.60;99.90;;;;;;5070269;28;20000;-72
2021/12/29 10:35:25;;;;;;;;;;;18.60;99.90;;;;;;5070327;28;19921;-71
2021/12/29 10:37:52;;;;;;;;;;;18.60;99.90;;;;;;5070118;28;19974;-72
2021/12/29 10:40:29;;;;;;;;;;;18.60;99.90;;;;;;5073070;28;19916;-71
2021/12/29 10:42:57;;;;;;;;;;;18.60;99.90;;;;;;5074186;28;19950;-72
2021/12/29 10:45:31;;;;;;;;;;;18.60;99.90;;;;;;5073655;28;19934;-71
2021/12/29 10:47:58;;;;;;;;;;;18.60;99.90;;;;;;5073812;28;20100;-72
2021/12/29 10:50:27;;;;;;;;;;;18.60;99.90;;;;;;5073929;28;19909;-71
2021/12/29 10:52:55;;;;;;;;;;;18.60;99.90;;;;;;5073991;28;19977;-71
2021/12/29 10:55:25;;;;;;;;;;;18.60;99.90;;;;;;5073611;28;19917;-71
2021/12/29 10:58:08;;;;;;;;;;;18.50;99.90;;;;;;5073791;28;19916;-72
2021/12/29 11:00:37;;;;;;;;;;;18.50;99.90;;;;;;5074021;28;20425;-72
2021/12/29 11:03:10;;;;;;;;;;;18.40;99.90;;;;;;5073658;28;19924;-72
2021/12/29 11:05:39;;;;;;;;;;;18.40;99.90;;;;;;5073933;28;19971;-72
2021/12/29 11:08:09;;;;;;;;;;;18.40;99.90;;;;;;5073573;28;19915;-73
2021/12/29 11:10:36;;;;;;;;;;;18.30;99.90;;;;;;5073094;28;19924;-72
2021/12/29 11:13:03;;;;;;;;;;;18.20;99.90;;;;;;5073331;28;19927;-73
2021/12/29 11:15:32;;;;;;;;;;;18.20;99.90;;;;;;5073503;28;20363;-72
2021/12/29 11:18:04;;;;;;;;;;;18.20;99.90;;;;;;5073444;28;19913;-72
2021/12/29 11:20:31;;;;;;;;;;;18.20;99.90;;;;;;5073496;28;19913;-72
2021/12/29 11:23:11;;;;;;;;;;;18.20;99.90;;;;;;5073836;28;19916;-72
2021/12/29 11:25:39;;;;;;;;;;;18.30;99.90;;;;;;5072772;28;19913;-72
2021/12/29 11:28:07;;;;;;;;;;;18.30;99.90;;;;;;5073218;28;19912;-72
2021/12/29 11:30:34;;;;;;;;;;;18.30;99.90;;;;;;5073037;28;20362;-72
2021/12/29 11:33:06;;;;;;;;;;;18.30;99.90;;;;;;5073173;28;19916;-72
2021/12/29 11:35:38;;;;;;;;;;;18.30;99.90;;;;;;5073383;28;20252;-72
2021/12/29 11:38:05;;;;;;;;;;;18.30;99.90;;;;;;5072516;28;20204;-72
2021/12/29 11:40:33;;;;;;;;;;;18.30;99.90;;;;;;5072335;28;19961;-72
2021/12/29 11:42:59;;;;;;;;;;;18.30;99.90;;;;;;5073262;28;19919;-71
2021/12/29 11:45:26;;;;;;;;;;;18.30;99.90;;;;;;5073103;28;19915;-72
2021/12/29 11:47:53;;;;;;;;;;;18.30;99.90;;;;;;5072907;28;19916;-72
2021/12/29 11:50:28;;;;;;;;;;;18.30;99.90;;;;;;5071666;28;19915;-72
2021/12/29 11:53:04;;;;;;;;;;;18.20;99.90;;;;;;5072881;28;19920;-72
2021/12/29 11:55:36;;;;;;;;;;;18.20;99.90;;;;;;5072226;28;19912;-72
2021/12/29 11:58:16;;;;;;;;;;;18.10;99.90;;;;;;5072795;28;19954;-72
2021/12/29 12:00:46;;;;;;;;;;;18.00;99.90;;;;;;5073068;28;20015;-72
2021/12/29 12:03:17;;;;;;;;;;;17.90;99.90;;;;;;5072634;28;20773;-72
2021/12/29 12:05:47;;;;;;;;;;;17.90;99.90;;;;;;5072432;28;19917;-72
2021/12/29 12:08:15;;;;;;;;;;;17.80;99.90;;;;;;5072767;28;19958;-73
2021/12/29 12:10:42;;;;;;;;;;;17.80;99.90;;;;;;5071974;28;19926;-71
2021/12/29 12:13:24;;;;;;;;;;;17.80;99.90;;;;;;5072345;28;19919;-72
2021/12/29 12:15:51;;;;;;;;;;;17.70;99.90;;;;;;5072683;28;19912;-72
2021/12/29 12:18:17;;;;;;;;;;;17.70;99.90;;;;;;5072295;28;20003;-72
2021/12/29 12:20:45;;;;;;;;;;;17.70;99.90;;;;;;5072558;28;20392;-72
2021/12/29 12:23:28;;;;;;;;;;;17.70;99.90;;;;;;5072606;28;19916;-72
2021/12/29 12:26:06;;;;;;;;;;;17.70;99.90;;;;;;5072315;28;20006;-71
2021/12/29 12:28:42;;;;;;;;;;;17.70;99.90;;;;;;5072734;28;20270;-71
2021/12/29 12:31:09;;;;;;;;;;;17.60;99.90;;;;;;5071979;28;19916;-71
2021/12/29 12:33:36;;;;;;;;;;;17.70;99.90;;;;;;5072453;28;19915;-71
2021/12/29 12:36:09;;;;;;;;;;;17.60;99.90;;;;;;5072400;28;19909;-71
2021/12/29 12:38:37;;;;;;;;;;;17.70;99.90;;;;;;5072471;28;19908;-72
2021/12/29 12:41:11;;;;;;;;;;;17.60;99.90;;;;;;5072430;28;19999;-71
2021/12/29 12:43:57;;;;;;;;;;;17.70;99.90;;;;;;5072015;28;20555;-72
2021/12/29 12:46:34;;;;;;;;;;;17.60;99.90;;;;;;5071963;28;19958;-71
2021/12/29 12:49:21;;;;;;;;;;;17.70;99.90;;;;;;5072142;28;19908;-71
2021/12/29 12:51:55;;;;;;;;;;;17.60;99.90;;;;;;5067691;28;19969;-71
2021/12/29 12:54:23;;;;;;;;;;;17.60;99.90;;;;;;5072095;28;19913;-71
2021/12/29 12:56:50;;;;;;;;;;;17.60;99.90;;;;;;5071641;28;20482;-72
2021/12/29 12:59:17;;;;;;;;;;;17.70;99.90;;;;;;5071935;28;19960;-71
2021/12/29 13:01:46;;;;;;;;;;;17.60;99.90;;;;;;5071430;28;19912;-71
2021/12/29 13:04:13;;;;;;;;;;;17.60;99.90;;;;;;5071775;28;20317;-72
2021/12/29 13:06:40;;;;;;;;;;;17.70;99.90;;;;;;5071995;28;19909;-71
2021/12/29 13:09:08;;;;;;;;;;;17.70;99.90;;;;;;5071322;28;20397;-71
2021/12/29 13:11:36;;;;;;;;;;;17.70;99.90;;;;;;5071639;28;20586;-72
2021/12/29 13:14:06;;;;;;;;;;;17.70;99.90;;;;;;5071285;28;19971;-71
2021/12/29 13:16:33;;;;;;;;;;;17.70;99.90;;;;;;5071334;28;19919;-71
2021/12/29 13:19:00;;;;;;;;;;;17.80;99.90;;;;;;5071497;28;19920;-71
2021/12/29 13:21:28;;;;;;;;;;;17.80;99.90;;;;;;5071485;28;19919;-71
2021/12/29 13:23:58;;;;;;;;;;;17.80;99.90;;;;;;5070989;28;19912;-72
2021/12/29 13:26:27;;;;;;;;;;;17.70;99.90;;;;;;5071391;28;19908;-71
2021/12/29 13:28:54;;;;;;;;;;;17.70;99.90;;;;;;5071310;28;19913;-71
2021/12/29 13:31:21;;;;;;;;;;;17.70;99.90;;;;;;5071030;28;19924;-71
2021/12/29 13:33:49;;;;;;;;;;;17.70;99.90;;;;;;5070961;28;20417;-72
2021/12/29 13:36:17;;;;;;;;;;;17.70;99.90;;;;;;5070981;28;19909;-71
2021/12/29 13:38:45;;;;;;;;;;;17.60;99.90;;;;;;5071404;28;19966;-71
2021/12/29 13:41:14;;;;;;;;;;;17.60;99.90;;;;;;5103595;28;19960;-71
2021/12/29 13:43:42;;;;;;;;;;;17.60;99.90;;;;;;5071062;28;19909;-71
2021/12/29 13:46:14;;;;;;;;;;;17.50;99.90;;;;;;5070671;28;19978;-71
2021/12/29 13:48:42;;;;;;;;;;;17.50;99.90;;;;;;5070709;28;19908;-72
2021/12/29 13:51:10;;;;;;;;;;;17.50;99.90;;;;;;5070985;28;20594;-71
2021/12/29 13:53:38;;;;;;;;;;;17.60;99.90;;;;;;5069541;28;19914;-71
2021/12/29 13:56:08;;;;;;;;;;;17.60;99.90;;;;;;5070633;28;19951;-71
2021/12/29 13:58:35;;;;;;;;;;;17.60;99.90;;;;;;5070807;28;19970;-72
2021/12/29 14:01:03;;;;;;;;;;;17.60;99.90;;;;;;5070532;28;19908;-72
2021/12/29 14:03:31;;;;;;;;;;;17.60;99.90;;;;;;5070596;28;19916;-73
2021/12/29 14:06:02;;;;;;;;;;;17.50;99.90;;;;;;5070548;28;19912;-73
2021/12/29 14:08:30;;;;;;;;;;;17.50;99.90;;;;;;5070793;28;19909;-71
2021/12/29 14:10:58;;;;;;;;;;;17.40;99.90;;;;;;5070596;28;19931;-72
2021/12/29 14:13:28;;;;;;;;;;;17.40;99.90;;;;;;5070119;28;19912;-72
2021/12/29 14:16:01;;;;;;;;;;;17.40;99.90;;;;;;5069855;28;20371;-72
2021/12/29 14:18:28;;;;;;;;;;;17.40;99.90;;;;;;5070603;28;19919;-72
2021/12/29 14:20:55;;;;;;;;;;;17.40;99.90;;;;;;5070602;28;19952;-72
2021/12/29 14:23:29;;;;;;;;;;;17.40;99.90;;;;;;5070708;28;19915;-72
2021/12/29 14:25:56;;;;;;;;;;;17.40;99.90;;;;;;5070274;28;20307;-71